createdAt,value
2023-07-17T00:01:52.503Z,4.30
2023-07-17T00:04:20.243Z,5.07
2023-07-17T00:06:48.145Z,4.85
2023-07-17T00:09:16.353Z,5.10
2023-07-17T00:11:44.664Z,4.40
2023-07-17T00:14:12.789Z,4.35
2023-07-17T00:16:41.979Z,4.60
2023-07-17T00:19:10.024Z,4.78
2023-07-17T00:21:38.178Z,5.07
2023-07-17T00:24:06.298Z,5.10
2023-07-17T00:26:34.245Z,5.05
2023-07-17T00:29:24.374Z,4.45
2023-07-17T00:31:54.307Z,4.90
2023-07-17T00:34:22.884Z,4.68
2023-07-17T00:36:50.868Z,5.30
2023-07-17T00:39:20.312Z,4.95
2023-07-17T00:41:48.812Z,4.85
2023-07-17T00:44:16.719Z,4.72
2023-07-17T00:46:45.867Z,4.65
2023-07-17T00:49:15.802Z,4.50
2023-07-17T00:51:44.720Z,4.30
2023-07-17T00:54:15.782Z,4.80
2023-07-17T00:56:45.759Z,4.40
2023-07-17T00:59:14.585Z,4.30
2023-07-17T01:01:43.449Z,4.40
2023-07-17T01:04:11.177Z,4.07
2023-07-17T01:06:41.648Z,4.32
2023-07-17T01:09:10.291Z,4.25
2023-07-17T01:11:38.376Z,3.83
2023-07-17T01:14:06.404Z,4.20
2023-07-17T01:16:38.102Z,4.05
2023-07-17T01:19:05.852Z,4.35
2023-07-17T01:21:39.899Z,4.30
2023-07-17T01:24:09.342Z,4.10
2023-07-17T01:26:37.176Z,3.90
2023-07-17T01:29:05.301Z,4.78
2023-07-17T01:31:33.617Z,3.80
2023-07-17T01:34:01.724Z,3.92
2023-07-17T01:36:29.507Z,4.32
2023-07-17T01:38:58.329Z,4.85
2023-07-17T01:41:27.787Z,4.45
2023-07-17T01:43:58.168Z,4.07
2023-07-17T01:46:26.562Z,4.40
2023-07-17T01:48:54.403Z,4.65
2023-07-17T01:51:22.379Z,4.47
2023-07-17T01:53:50.110Z,4.28
2023-07-17T01:56:17.917Z,4.28
2023-07-17T01:58:47.970Z,3.88
2023-07-17T02:04:22.100Z,4.43
2023-07-17T02:06:49.939Z,4.32
2023-07-17T02:09:17.852Z,4.18
2023-07-17T02:11:45.619Z,3.67
2023-07-17T02:14:15.175Z,4.40
2023-07-17T02:16:42.989Z,4.45
2023-07-17T02:19:10.766Z,4.30
2023-07-17T02:21:38.714Z,4.43
2023-07-17T02:24:07.945Z,4.43
2023-07-17T02:26:35.684Z,4.68
2023-07-17T02:29:04.000Z,4.60
2023-07-17T02:31:33.380Z,4.50
2023-07-17T02:34:01.241Z,4.65
2023-07-17T02:36:30.124Z,3.95
2023-07-17T02:38:57.905Z,4.30
2023-07-17T02:41:26.010Z,4.40
2023-07-17T02:43:54.119Z,4.25
2023-07-17T02:46:22.669Z,4.68
2023-07-17T02:48:51.771Z,4.30
2023-07-17T02:51:20.361Z,4.30
2023-07-17T02:53:48.532Z,4.80
2023-07-17T02:56:16.264Z,4.53
2023-07-17T02:58:44.931Z,4.35
2023-07-17T03:01:13.004Z,4.15
2023-07-17T03:03:41.390Z,4.45
2023-07-17T03:06:10.487Z,4.43
2023-07-17T03:08:38.189Z,4.53
2023-07-17T03:11:06.673Z,4.53
2023-07-17T03:13:34.535Z,4.68
2023-07-17T03:16:02.438Z,4.43
2023-07-17T03:18:30.864Z,4.25
2023-07-17T03:20:59.029Z,4.32
2023-07-17T03:23:28.500Z,5.13
2023-07-17T03:25:58.034Z,4.35
2023-07-17T03:28:26.080Z,5.35
2023-07-17T03:30:55.541Z,4.78
2023-07-17T03:33:23.782Z,4.60
2023-07-17T03:35:51.588Z,5.35
2023-07-17T03:38:20.383Z,5.35
2023-07-17T03:40:49.678Z,4.85
2023-07-17T03:43:17.489Z,4.60
2023-07-17T03:45:47.690Z,4.70
2023-07-17T03:48:16.089Z,4.68
2023-07-17T03:50:44.370Z,4.97
2023-07-17T03:53:12.397Z,4.88
2023-07-17T03:55:40.763Z,4.60
2023-07-17T03:58:10.237Z,5.05
2023-07-17T04:00:38.508Z,4.70
2023-07-17T04:03:09.528Z,4.90
2023-07-17T04:05:41.437Z,5.32
2023-07-17T04:08:10.912Z,4.88
2023-07-17T04:10:38.812Z,5.10
2023-07-17T04:13:06.642Z,5.55
2023-07-17T04:15:36.982Z,5.90
2023-07-17T04:18:06.241Z,5.00
2023-07-17T04:20:34.762Z,5.10
2023-07-17T04:23:02.639Z,4.70
2023-07-17T04:25:30.594Z,4.80
2023-07-17T04:27:58.621Z,4.88
2023-07-17T04:30:26.719Z,5.18
2023-07-17T04:32:56.952Z,4.47
2023-07-17T04:35:25.034Z,4.72
2023-07-17T04:37:56.469Z,5.15
2023-07-17T04:40:24.741Z,4.80
2023-07-17T04:42:53.764Z,4.93
2023-07-17T04:45:21.881Z,4.70
2023-07-17T04:48:11.889Z,4.80
2023-07-17T04:50:40.282Z,4.78
2023-07-17T04:53:08.318Z,5.18
2023-07-17T04:55:36.188Z,5.32
2023-07-17T04:58:04.364Z,5.90
2023-07-17T05:00:35.373Z,4.80
2023-07-17T05:03:03.253Z,5.05
2023-07-17T05:05:33.076Z,5.50
2023-07-17T05:08:00.958Z,4.70
2023-07-17T05:10:29.852Z,4.95
2023-07-17T05:12:57.589Z,4.55
2023-07-17T05:15:25.573Z,4.38
2023-07-17T05:17:53.333Z,4.47
2023-07-17T05:20:21.484Z,4.68
2023-07-17T05:22:50.633Z,4.28
2023-07-17T05:25:18.635Z,4.63
2023-07-17T05:27:47.534Z,4.43
2023-07-17T05:30:17.529Z,5.07
2023-07-17T05:32:45.505Z,4.47
2023-07-17T05:35:13.399Z,4.80
2023-07-17T05:37:41.344Z,4.80
2023-07-17T05:40:12.471Z,5.13
2023-07-17T05:42:41.137Z,4.45
2023-07-17T05:45:11.479Z,4.43
2023-07-17T05:47:41.442Z,4.78
2023-07-17T05:50:12.113Z,4.85
2023-07-17T05:52:41.383Z,4.18
2023-07-17T05:55:09.823Z,4.20
2023-07-17T05:57:41.700Z,4.80
2023-07-17T06:00:12.595Z,6.05
2023-07-17T06:02:44.451Z,6.13
2023-07-17T06:05:13.468Z,7.57
2023-07-17T06:07:42.289Z,5.68
2023-07-17T06:10:13.874Z,4.32
2023-07-17T06:12:44.685Z,4.50
2023-07-17T06:15:14.875Z,4.63
2023-07-17T06:17:43.826Z,4.80
2023-07-17T06:20:13.616Z,4.85
2023-07-17T06:22:44.640Z,4.95
2023-07-17T06:25:13.770Z,4.55
2023-07-17T06:27:44.158Z,4.13
2023-07-17T06:30:13.685Z,4.40
2023-07-17T06:32:43.651Z,4.43
2023-07-17T06:35:12.718Z,4.65
2023-07-17T06:37:41.659Z,4.50
2023-07-17T06:40:12.031Z,4.32
2023-07-17T06:42:41.543Z,4.40
2023-07-17T06:45:12.675Z,3.85
2023-07-17T06:47:42.499Z,4.70
2023-07-17T06:50:11.475Z,4.18
2023-07-17T06:52:40.058Z,4.63
2023-07-17T06:55:09.962Z,7.22
2023-07-17T06:57:37.777Z,6.13
2023-07-17T07:00:07.848Z,4.95
2023-07-17T07:02:38.568Z,4.38
2023-07-17T07:05:08.598Z,4.80
2023-07-17T07:07:36.303Z,4.72
2023-07-17T07:10:04.241Z,4.22
2023-07-17T07:12:31.910Z,4.57
2023-07-17T07:14:59.626Z,4.38
2023-07-17T07:17:28.195Z,4.85
2023-07-17T07:19:57.426Z,3.80
2023-07-17T07:22:25.639Z,4.45
2023-07-17T07:24:53.296Z,10.68
2023-07-17T07:27:22.373Z,5.10
2023-07-17T07:29:50.150Z,4.45
2023-07-17T07:32:17.850Z,4.53
2023-07-17T07:34:45.582Z,4.28
2023-07-17T07:37:14.624Z,3.95
2023-07-17T07:39:42.732Z,4.35
2023-07-17T07:42:10.896Z,4.45
2023-07-17T07:44:38.515Z,4.20
2023-07-17T07:47:07.723Z,4.35
2023-07-17T07:49:35.440Z,3.90
2023-07-17T07:52:03.201Z,3.75
2023-07-17T07:54:32.725Z,4.40
2023-07-17T07:57:00.791Z,4.10
2023-07-17T07:59:29.108Z,3.65
2023-07-17T08:01:56.933Z,3.33
2023-07-17T08:04:24.769Z,3.58
2023-07-17T08:06:52.815Z,3.15
2023-07-17T08:09:20.774Z,11.60
2023-07-17T08:11:49.827Z,4.38
2023-07-17T08:14:17.807Z,3.88
2023-07-17T08:16:46.092Z,2.70
2023-07-17T08:19:14.328Z,2.40
2023-07-17T08:21:42.043Z,2.85
2023-07-17T08:24:10.696Z,2.67
2023-07-17T08:26:39.703Z,2.30
2023-07-17T08:29:10.010Z,2.28
2023-07-17T08:31:38.743Z,2.25
2023-07-17T08:34:06.608Z,2.50
2023-07-17T08:36:35.110Z,2.55
2023-07-17T08:39:05.874Z,2.25
2023-07-17T08:41:33.864Z,2.80
2023-07-17T08:44:03.588Z,2.80
2023-07-17T08:46:33.742Z,2.63
2023-07-17T08:49:04.026Z,2.50
2023-07-17T08:51:33.048Z,2.65
2023-07-17T08:54:27.128Z,2.80
2023-07-17T08:56:52.331Z,3.20
2023-07-17T08:59:22.470Z,3.38
2023-07-17T09:01:52.073Z,2.95
2023-07-17T09:04:21.210Z,3.38
2023-07-17T09:06:49.447Z,3.15
2023-07-17T09:09:18.300Z,3.10
2023-07-17T09:11:46.199Z,2.97
2023-07-17T09:14:13.955Z,3.80
2023-07-17T09:16:41.857Z,3.53
2023-07-17T09:19:11.041Z,7.38
2023-07-17T09:21:43.271Z,4.35
2023-07-17T09:24:11.081Z,3.67
2023-07-17T09:26:39.325Z,3.70
2023-07-17T09:29:07.863Z,3.55
2023-07-17T09:31:35.702Z,3.40
2023-07-17T09:34:13.320Z,3.35
2023-07-17T09:36:42.744Z,3.08
2023-07-17T09:39:12.204Z,3.53
2023-07-17T09:41:40.474Z,3.25
2023-07-17T09:44:10.147Z,3.25
2023-07-17T09:46:40.109Z,3.30
2023-07-17T09:49:09.205Z,3.47
2023-07-17T09:51:37.735Z,3.42
2023-07-17T09:54:07.288Z,3.25
2023-07-17T09:56:35.796Z,3.13
2023-07-17T09:59:14.940Z,3.28
2023-07-17T10:01:45.387Z,3.47
2023-07-17T10:04:18.594Z,3.08
2023-07-17T10:06:48.725Z,3.03
2023-07-17T10:09:21.894Z,3.10
2023-07-17T10:11:50.456Z,3.28
2023-07-17T10:14:18.528Z,3.20
2023-07-17T10:16:46.425Z,3.35
2023-07-17T10:19:14.124Z,2.85
2023-07-17T10:21:55.222Z,2.80
2023-07-17T10:24:25.989Z,2.58
2023-07-17T10:26:54.193Z,2.83
2023-07-17T10:29:31.854Z,2.60
2023-07-17T10:32:00.053Z,2.70
2023-07-17T10:34:49.445Z,2.60
2023-07-17T10:37:40.277Z,2.67
2023-07-17T10:40:27.936Z,2.75
2023-07-17T10:42:56.679Z,1.95
2023-07-17T10:45:36.075Z,2.20
2023-07-17T10:48:04.329Z,2.00
2023-07-17T10:50:32.097Z,2.05
2023-07-17T10:53:03.879Z,2.40
2023-07-17T10:55:33.676Z,2.10
2023-07-17T10:58:02.673Z,11.35
2023-07-17T11:00:31.493Z,11.20
2023-07-17T11:03:00.994Z,2.60
2023-07-17T11:05:28.915Z,1.77
2023-07-17T11:07:58.731Z,1.83
2023-07-17T11:10:27.273Z,1.77
2023-07-17T11:13:03.461Z,1.92
2023-07-17T11:15:33.766Z,1.83
2023-07-17T11:18:02.354Z,2.00
2023-07-17T11:20:31.364Z,2.00
2023-07-17T11:23:00.294Z,2.17
2023-07-17T11:25:29.900Z,2.45
2023-07-17T11:28:02.585Z,2.00
2023-07-17T11:30:33.466Z,2.40
2023-07-17T11:33:07.011Z,2.38
2023-07-17T11:35:42.603Z,2.10
2023-07-17T11:38:11.848Z,2.20
2023-07-17T11:41:03.152Z,2.67
2023-07-17T11:43:34.727Z,2.58
2023-07-17T11:46:05.208Z,7.68
2023-07-17T11:48:34.646Z,6.10
2023-07-17T11:51:05.421Z,2.67
2023-07-17T11:53:33.714Z,2.72
2023-07-17T11:56:03.668Z,2.17
2023-07-17T11:58:37.810Z,2.42
2023-07-17T12:01:08.125Z,2.63
2023-07-17T12:03:35.949Z,2.40
2023-07-17T12:06:04.744Z,2.30
2023-07-17T12:08:32.538Z,2.45
2023-07-17T12:11:00.332Z,2.83
2023-07-17T12:13:28.175Z,2.50
2023-07-17T12:15:57.839Z,3.10
2023-07-17T12:18:26.198Z,2.35
2023-07-17T12:20:54.481Z,2.83
2023-07-17T12:23:23.073Z,2.55
2023-07-17T12:25:50.895Z,2.80
2023-07-17T12:28:18.676Z,2.90
2023-07-17T12:30:47.086Z,2.85
2023-07-17T12:33:16.505Z,2.40
2023-07-17T12:35:46.227Z,3.17
2023-07-17T12:38:13.974Z,4.75
2023-07-17T12:40:42.113Z,2.60
2023-07-17T12:43:10.119Z,3.35
2023-07-17T12:45:38.183Z,2.67
2023-07-17T12:48:08.053Z,3.30
2023-07-17T12:50:38.056Z,2.45
2023-07-17T12:53:06.731Z,2.67
2023-07-17T12:55:34.617Z,2.35
2023-07-17T12:58:03.566Z,3.05
2023-07-17T13:00:31.864Z,2.65
2023-07-17T13:02:59.761Z,2.50
2023-07-17T13:05:27.547Z,2.38
2023-07-17T13:07:56.585Z,2.70
2023-07-17T13:10:24.586Z,2.83
2023-07-17T13:12:52.475Z,3.10
2023-07-17T13:15:20.452Z,2.35
2023-07-17T13:17:48.185Z,2.40
2023-07-17T13:20:16.417Z,3.15
2023-07-17T13:22:44.201Z,2.58
2023-07-17T13:25:13.660Z,2.33
2023-07-17T13:27:41.352Z,2.25
2023-07-17T13:30:10.567Z,2.40
2023-07-17T13:32:39.811Z,2.75
2023-07-17T13:35:08.990Z,2.20
2023-07-17T13:37:37.286Z,2.55
2023-07-17T13:40:06.272Z,2.60
2023-07-17T13:42:35.708Z,2.40
2023-07-17T13:45:03.408Z,2.15
2023-07-17T13:47:31.861Z,2.63
2023-07-17T13:49:59.867Z,2.60
2023-07-17T13:52:27.595Z,2.33
2023-07-17T13:54:56.487Z,2.60
2023-07-17T13:57:24.526Z,2.28
2023-07-17T13:59:54.260Z,2.20
2023-07-17T14:02:22.895Z,2.20
2023-07-17T14:04:50.891Z,2.45
2023-07-17T14:07:19.568Z,2.08
2023-07-17T14:09:47.933Z,2.25
2023-07-17T14:12:15.779Z,2.10
2023-07-17T14:14:43.552Z,2.38
2023-07-17T14:17:12.971Z,2.42
2023-07-17T14:19:41.121Z,2.50
2023-07-17T14:22:09.161Z,1.95
2023-07-17T14:24:37.047Z,2.10
2023-07-17T14:27:05.401Z,1.88
2023-07-17T14:29:33.086Z,2.17
2023-07-17T14:32:01.185Z,2.30
2023-07-17T14:34:30.401Z,2.40
2023-07-17T14:36:58.900Z,2.40
2023-07-17T14:39:28.613Z,1.90
2023-07-17T14:41:56.339Z,2.13
2023-07-17T14:44:26.594Z,2.33
2023-07-17T14:46:54.522Z,2.05
2023-07-17T14:49:32.700Z,2.70
2023-07-17T14:52:02.333Z,2.40
2023-07-17T14:54:30.004Z,2.00
2023-07-17T14:56:57.841Z,1.92
2023-07-17T14:59:25.860Z,2.08
2023-07-17T15:01:54.083Z,2.35
2023-07-17T15:04:22.455Z,2.22
2023-07-17T15:06:50.275Z,2.10
2023-07-17T15:09:20.222Z,1.90
2023-07-17T15:11:47.999Z,2.25
2023-07-17T15:14:26.084Z,2.00
2023-07-17T15:16:54.944Z,2.17
2023-07-17T15:19:22.711Z,2.05
2023-07-17T15:21:50.562Z,2.00
2023-07-17T15:24:20.094Z,1.70
2023-07-17T15:26:47.831Z,2.10
2023-07-17T15:29:16.138Z,1.80
2023-07-17T15:31:44.159Z,1.83
2023-07-17T15:34:11.858Z,2.35
2023-07-17T15:36:40.169Z,2.00
2023-07-17T15:39:08.586Z,2.20
2023-07-17T15:41:38.038Z,2.13
2023-07-17T15:44:06.186Z,1.52
2023-07-17T15:46:34.909Z,1.88
2023-07-17T15:49:02.677Z,2.13
2023-07-17T15:51:30.484Z,2.00
2023-07-17T15:53:58.184Z,1.80
2023-07-17T15:56:26.233Z,1.70
2023-07-17T15:58:55.705Z,1.88
2023-07-17T16:01:24.703Z,1.77
2023-07-17T16:03:52.881Z,2.80
2023-07-17T16:06:21.102Z,3.13
2023-07-17T16:08:48.945Z,2.17
2023-07-17T16:11:16.784Z,2.00
2023-07-17T16:13:44.504Z,2.30
2023-07-17T16:16:13.572Z,2.10
2023-07-17T16:18:41.488Z,1.73
2023-07-17T16:21:09.325Z,2.00
2023-07-17T16:23:37.038Z,1.88
2023-07-17T16:26:06.398Z,2.05
2023-07-17T16:28:34.420Z,1.73
2023-07-17T16:31:02.398Z,1.55
2023-07-17T16:33:31.564Z,2.20
2023-07-17T16:35:59.509Z,2.20
2023-07-17T16:38:27.552Z,1.95
2023-07-17T16:40:55.345Z,2.83
2023-07-17T16:43:23.127Z,7.53
2023-07-17T16:45:53.777Z,2.50
2023-07-17T16:48:22.188Z,2.00
2023-07-17T16:50:51.571Z,2.00
2023-07-17T16:53:19.323Z,1.55
2023-07-17T16:55:47.093Z,2.13
2023-07-17T16:58:16.432Z,1.98
2023-07-17T17:00:44.178Z,2.00
2023-07-17T17:03:12.375Z,1.90
2023-07-17T17:05:41.198Z,1.65
2023-07-17T17:08:10.342Z,1.88
2023-07-17T17:10:38.267Z,1.85
2023-07-17T17:13:06.121Z,2.00
2023-07-17T17:15:33.926Z,1.58
2023-07-17T17:18:01.962Z,1.70
2023-07-17T17:20:30.119Z,1.75
2023-07-17T17:22:58.563Z,1.63
2023-07-17T17:25:29.274Z,2.75
2023-07-17T17:27:59.242Z,4.93
2023-07-17T17:30:29.600Z,2.30
2023-07-17T17:32:58.712Z,2.28
2023-07-17T17:35:30.192Z,2.35
2023-07-17T17:37:59.291Z,1.67
2023-07-17T17:40:29.241Z,1.60
2023-07-17T17:42:57.826Z,1.48
2023-07-17T17:45:26.623Z,1.52
2023-07-17T17:47:55.073Z,1.55
2023-07-17T17:50:24.414Z,1.23
2023-07-17T17:52:52.748Z,1.10
2023-07-17T17:55:21.450Z,1.40
2023-07-17T17:57:51.356Z,1.45
2023-07-17T18:00:21.113Z,1.20
2023-07-17T18:02:50.043Z,1.60
2023-07-17T18:05:19.153Z,1.38
2023-07-17T18:07:48.367Z,1.25
2023-07-17T18:10:17.486Z,1.70
2023-07-17T18:12:46.154Z,1.30
2023-07-17T18:15:16.295Z,1.38
2023-07-17T18:17:44.647Z,1.35
2023-07-17T18:20:12.700Z,1.63
2023-07-17T18:22:40.755Z,1.13
2023-07-17T18:25:12.580Z,2.10
2023-07-17T18:27:41.036Z,2.10
2023-07-17T18:30:09.688Z,2.45
2023-07-17T18:32:38.865Z,1.48
2023-07-17T18:35:07.676Z,1.42
2023-07-17T18:37:35.777Z,1.63
2023-07-17T18:40:05.677Z,1.80
2023-07-17T18:42:33.395Z,1.70
2023-07-17T18:45:01.221Z,1.15
2023-07-17T18:47:29.623Z,1.55
2023-07-17T18:49:59.377Z,1.70
2023-07-17T18:52:29.735Z,2.58
2023-07-17T18:54:58.358Z,2.35
2023-07-17T18:57:26.667Z,1.52
2023-07-17T18:59:54.568Z,1.58
2023-07-17T19:02:22.416Z,1.60
2023-07-17T19:04:50.276Z,1.70
2023-07-17T19:07:19.332Z,1.60
2023-07-17T19:09:47.923Z,1.60
2023-07-17T19:12:15.975Z,1.88
2023-07-17T19:14:43.741Z,2.08
2023-07-17T19:17:11.523Z,1.35
2023-07-17T19:19:40.556Z,1.48
2023-07-17T19:22:08.334Z,1.50
2023-07-17T19:24:37.654Z,1.45
2023-07-17T19:27:06.379Z,1.45
2023-07-17T19:29:34.644Z,1.75
2023-07-17T19:32:02.477Z,1.42
2023-07-17T19:34:30.493Z,1.60
2023-07-17T19:36:58.220Z,1.80
2023-07-17T19:39:26.082Z,1.50
2023-07-17T19:41:55.486Z,1.60
2023-07-17T19:44:23.419Z,1.63
2023-07-17T19:46:51.402Z,1.55
2023-07-17T19:49:20.344Z,1.67
2023-07-17T19:51:48.286Z,1.50
2023-07-17T19:54:16.829Z,1.40
2023-07-17T19:56:44.579Z,1.65
2023-07-17T19:59:13.788Z,1.80
2023-07-17T20:01:41.671Z,1.90
2023-07-17T20:04:11.748Z,1.70
2023-07-17T20:06:40.097Z,2.13
2023-07-17T20:09:09.038Z,2.08
2023-07-17T20:11:39.833Z,2.05
2023-07-17T20:14:07.621Z,1.90
2023-07-17T20:16:37.295Z,1.55
2023-07-17T20:19:05.057Z,1.58
2023-07-17T20:21:34.309Z,1.85
2023-07-17T20:24:02.610Z,1.70
2023-07-17T20:26:30.346Z,1.58
2023-07-17T20:28:58.138Z,1.25
2023-07-17T20:31:26.091Z,1.63
2023-07-17T20:33:55.438Z,1.70
2023-07-17T20:36:23.270Z,1.60
2023-07-17T20:38:51.879Z,1.70
2023-07-17T20:41:19.887Z,1.40
2023-07-17T20:43:48.676Z,1.40
2023-07-17T20:46:16.477Z,1.52
2023-07-17T20:48:44.689Z,1.58
2023-07-17T20:51:15.303Z,1.70
2023-07-17T20:53:44.216Z,2.70
2023-07-17T20:56:13.062Z,2.40
2023-07-17T20:58:43.932Z,1.60
2023-07-17T21:01:18.105Z,1.55
2023-07-17T21:03:46.772Z,1.45
2023-07-17T21:06:15.966Z,1.35
2023-07-17T21:08:43.680Z,1.85
2023-07-17T21:11:11.798Z,1.40
2023-07-17T21:13:39.994Z,1.30
2023-07-17T21:16:07.947Z,1.75
2023-07-17T21:18:35.632Z,1.70
2023-07-17T21:21:03.566Z,1.45
2023-07-17T21:23:32.765Z,1.63
2023-07-17T21:26:00.483Z,1.52
2023-07-17T21:28:31.390Z,1.40
2023-07-17T21:30:59.415Z,1.35
2023-07-17T21:33:27.560Z,1.50
2023-07-17T21:35:55.786Z,1.23
2023-07-17T21:38:23.640Z,1.45
2023-07-17T21:40:52.762Z,1.20
2023-07-17T21:43:20.492Z,1.95
2023-07-17T21:45:49.570Z,1.50
2023-07-17T21:48:17.241Z,1.42
2023-07-17T21:50:45.131Z,1.30
2023-07-17T21:53:15.293Z,1.58
2023-07-17T21:55:43.624Z,1.25
2023-07-17T21:58:12.674Z,1.60
2023-07-17T22:00:40.327Z,1.25
2023-07-17T22:03:09.380Z,1.42
2023-07-17T22:05:37.170Z,1.48
2023-07-17T22:08:05.224Z,1.48
2023-07-17T22:10:32.934Z,1.30
2023-07-17T22:13:00.867Z,1.63
2023-07-17T22:15:29.981Z,2.22
2023-07-17T22:17:57.729Z,1.70
2023-07-17T22:20:25.845Z,1.88
2023-07-17T22:22:53.579Z,1.50
2023-07-17T22:25:21.289Z,2.05
2023-07-17T22:27:50.561Z,1.42
2023-07-17T22:30:18.505Z,2.00
2023-07-17T22:32:48.018Z,1.73
2023-07-17T22:35:16.657Z,2.25
2023-07-17T22:37:44.750Z,1.88
2023-07-17T22:40:13.260Z,1.80
2023-07-17T22:42:41.000Z,2.05
2023-07-17T22:45:09.924Z,1.77
2023-07-17T22:47:37.662Z,3.33
2023-07-17T22:50:08.045Z,2.40
2023-07-17T22:52:35.873Z,1.95
2023-07-17T22:55:07.026Z,2.30
2023-07-17T22:57:34.779Z,2.55
2023-07-17T23:00:02.735Z,2.25
2023-07-17T23:02:30.779Z,2.42
2023-07-17T23:04:59.709Z,2.80
2023-07-17T23:07:28.935Z,2.47
2023-07-17T23:09:56.963Z,2.70
2023-07-17T23:15:11.212Z,2.83
2023-07-17T23:17:40.694Z,2.80
2023-07-17T23:20:12.272Z,3.05
2023-07-17T23:22:42.709Z,3.20
2023-07-17T23:25:11.366Z,3.08
2023-07-17T23:27:39.646Z,2.88
2023-07-17T23:30:10.147Z,3.13
2023-07-17T23:32:38.089Z,2.75
2023-07-17T23:35:07.079Z,3.40
2023-07-17T23:37:35.181Z,3.00
2023-07-17T23:40:05.310Z,3.20
2023-07-17T23:42:34.217Z,2.75
2023-07-17T23:45:02.712Z,2.95
2023-07-17T23:47:31.263Z,3.33
2023-07-17T23:49:59.211Z,3.30
2023-07-17T23:52:27.205Z,3.60
2023-07-17T23:54:55.405Z,3.00
2023-07-17T23:57:25.990Z,3.28
2023-07-17T23:59:53.793Z,3.28
